Etusivu
METAR-TAF:

METAR-TAF

Lentoasemat :

Tartto, Viro

Tarton lentoasema

Leveyspiiri: 58-18N, Pituuspiiri: 026-44E, korkeus merenpinnasta: 59 m

Tämänhetkinen sää

Tämä raportti tehtiin 1 tunti ja 3 minuuttia sitten, kello 19.50 UTC
Tuuli 5 kn lännestä
Lämpötila 11°C
Kosteus 66%
Ilmanpaine 1015 hPa
Näkyvyys 10 km tai enemmän

METAR: EETU 261950Z AUTO 28005KT 9999 FEW061/// 11/05 Q1015

Aika: 23:53 (20:53 UTC)

Sääennuste

Tämä raportti tehtiin 4 tuntia ja 53 minuuttia sitten, kello 16.00 UTC
Ennuste voimassa 26. päivästä klo 17 UTC - 26. päivään klo 23 UTC
Tuuli 8 kn lännestä/luoteesta
Näkyvyys 10 km tai enemmän
Hajanaisia pilviä 4000 ft:n korkeudessa
Ajoittain
26. päivästä klo 17 UTC - 26. päivään klo 19 UTC
Hajanaisia pilviä 2000 ft:n korkeudessa, Cumulonimbus.

TAF: EETU 261600Z 2617/2623 30008KT 9999 SCT040 TEMPO 2617/2619 SCT020CB

Säähavainnot ja -ennusteet yli 4000 lentoasemalta (METAR- ja TAF-raportit).

Käytössä olevat sääasemat on merkitty karttaan keltaisilla ja punaisilla pisteillä.

Aseta hiiri pisteen päälle nähdäksesi sääaseman nimen.

Klikkaa sitten nähdäksesi säähavainnot ja -ennusteet.

Kartan vaihtaminen: klikkaa mustalla rastilla varustettuja vihreitä pisteitä, niin voit zoomata sisään; viivalla varustettua vihreää pistettä, niin voit zoomata ulos tai vihreitä nuolia, niin pääset viereisille kartoille.


METAR-TAF: